29分钟前
跑道 逆风 侧风 长度
8/26 1 千吨 6 千吨 860 米
METAR EHLW 031255Z AUTO 01007KT 310V070 9999 FEW033 BKN040 BKN044 19/12 Q1013 BLU NOSIG

METAR定义 | 嵌入

METAR Ameland Airport Ballum

Ameland Airport Ballum是Ameland,荷兰中的小机场。 机场有{a,plural,=1{一条跑道} other{#跑道}}: 8/26 (860 米)

Ameland Airport Ballum最近未发布观察结果。相反,我们向您显示25 km的报告Leeuwarden Air Base。 该报告是针对2021年8月3日 14:55, 当地时间进行的。

机场观察

风来自北 (010°)方向,速度为7 千吨。 风向在北西 (310°)和东北东 (070°)之间变化。

可见度为10 公里 或者更多。

有几云在3.300 ft的高度, 碎云在4.000 ft的高度 和 碎云在4.400 ft的高度。 破损或更高的上限为4.000 ft。

温度和风寒是19 °C。 露点为12 °C,相对湿度为64%。 海平面上的气压为1013 压力 (QNH)。

白天

今天,太阳从05:57升起,在21:29降落。 这适用于Ameland Airport Ballum,世界夏令时可能有所不同。 当地时间与世界标准时间之间的时差为+2 小时。 夏令时目前正在进行中。

历史数据

您会帮助我们保持Metar-Taf.com正常运行吗?
您的贡献有助于网站的进一步开发并支付费用。

没有更多广告

您是捐款5美元还是更多?然后,我们将永远不会再向您展示广告,这是我们永恒的感谢!
捐赠前先登录

您是否要在网站上Ameland Airport Ballum飞行的天气? 阅读更多   自由!